createdAt,value
2018-02-16T00:01:27.029Z,2.55
2018-02-16T00:03:55.361Z,2.48
2018-02-16T00:06:23.754Z,2.62
2018-02-16T00:08:52.136Z,2.63
2018-02-16T00:11:20.689Z,2.59
2018-02-16T00:13:49.004Z,2.59
2018-02-16T00:16:17.336Z,2.66
2018-02-16T00:18:45.637Z,2.49
2018-02-16T00:21:14.018Z,2.62
2018-02-16T00:23:42.326Z,2.61
2018-02-16T00:26:10.679Z,2.69
2018-02-16T00:28:39.063Z,2.65
2018-02-16T00:31:07.528Z,2.64
2018-02-16T00:33:35.836Z,2.70
2018-02-16T00:36:04.302Z,2.55
2018-02-16T00:38:32.584Z,2.64
2018-02-16T00:41:00.903Z,2.67
2018-02-16T00:43:29.216Z,2.70
2018-02-16T00:45:57.553Z,2.62
2018-02-16T00:48:25.950Z,2.65
2018-02-16T00:50:54.863Z,2.77
2018-02-16T00:53:23.332Z,2.70
2018-02-16T00:55:51.641Z,2.71
2018-02-16T00:58:19.936Z,2.71
2018-02-16T01:00:48.273Z,2.67
2018-02-16T01:03:16.631Z,2.77
2018-02-16T01:05:45.132Z,2.64
2018-02-16T01:08:13.409Z,2.72
2018-02-16T01:10:41.728Z,2.86
2018-02-16T01:13:10.012Z,2.85
2018-02-16T01:15:38.448Z,2.83
2018-02-16T01:18:06.800Z,2.87
2018-02-16T01:20:35.206Z,2.93
2018-02-16T01:23:03.640Z,2.99
2018-02-16T01:25:31.945Z,2.96
2018-02-16T01:28:00.232Z,3.02
2018-02-16T01:30:28.568Z,2.92
2018-02-16T01:32:56.990Z,2.80
2018-02-16T01:35:25.421Z,2.78
2018-02-16T01:37:54.016Z,2.66
2018-02-16T01:40:22.332Z,2.63
2018-02-16T01:42:50.630Z,2.62
2018-02-16T01:45:19.085Z,2.86
2018-02-16T01:47:47.550Z,2.86
2018-02-16T01:50:15.893Z,2.90
2018-02-16T01:52:44.216Z,2.90
2018-02-16T01:55:12.526Z,2.98
2018-02-16T01:57:40.812Z,2.97
2018-02-16T02:00:09.133Z,2.91
2018-02-16T02:02:37.547Z,2.94
2018-02-16T02:05:05.921Z,2.86
2018-02-16T02:07:34.242Z,2.90
2018-02-16T02:10:02.533Z,2.92
2018-02-16T02:12:30.877Z,2.90
2018-02-16T02:14:59.192Z,2.95
2018-02-16T02:17:27.808Z,2.84
2018-02-16T02:19:56.245Z,2.94
2018-02-16T02:22:24.627Z,2.84
2018-02-16T02:24:52.982Z,2.83
2018-02-16T02:27:21.424Z,2.96
2018-02-16T02:29:49.697Z,2.90
2018-02-16T02:32:18.174Z,2.78
2018-02-16T02:34:46.489Z,2.90
2018-02-16T02:37:14.855Z,2.91
2018-02-16T02:39:43.224Z,3.00
2018-02-16T02:42:11.588Z,3.10
2018-02-16T02:44:39.892Z,3.09
2018-02-16T02:47:08.237Z,2.96
2018-02-16T02:49:36.535Z,3.00
2018-02-16T02:52:04.947Z,2.92
2018-02-16T02:54:33.375Z,3.01
2018-02-16T02:57:01.814Z,3.13
2018-02-16T02:59:30.513Z,3.11
2018-02-16T03:01:58.849Z,3.13
2018-02-16T03:04:27.120Z,3.10
2018-02-16T03:06:55.477Z,3.07
2018-02-16T03:09:23.841Z,3.09
2018-02-16T03:11:52.324Z,3.05
2018-02-16T03:14:20.595Z,3.25
2018-02-16T03:16:48.927Z,3.09
2018-02-16T03:19:17.221Z,3.11
2018-02-16T03:21:45.673Z,3.22
2018-02-16T03:24:13.993Z,3.08
2018-02-16T03:26:42.512Z,3.09
2018-02-16T03:29:10.820Z,3.11
2018-02-16T03:31:39.161Z,3.09
2018-02-16T03:34:07.457Z,3.02
2018-02-16T03:36:36.642Z,3.09
2018-02-16T03:39:05.767Z,3.12
2018-02-16T03:41:34.155Z,3.19
2018-02-16T03:44:02.482Z,3.21
2018-02-16T03:46:31.448Z,3.18
2018-02-16T03:48:59.840Z,3.20
2018-02-16T03:51:28.222Z,3.14
2018-02-16T03:53:56.715Z,3.03
2018-02-16T03:56:25.198Z,2.87
2018-02-16T03:58:53.508Z,2.91
2018-02-16T04:01:21.863Z,2.85
2018-02-16T04:03:50.284Z,2.67
2018-02-16T04:06:18.605Z,2.85
2018-02-16T04:08:47.248Z,2.83
2018-02-16T04:11:15.606Z,2.67
2018-02-16T04:13:43.932Z,2.72
2018-02-16T04:16:12.337Z,2.60
2018-02-16T04:18:40.628Z,2.59
2018-02-16T04:21:08.973Z,2.48
2018-02-16T04:23:37.362Z,2.35
2018-02-16T04:26:05.824Z,2.42
2018-02-16T04:31:08.633Z,2.35
2018-02-16T04:33:36.928Z,2.35
2018-02-16T04:36:05.298Z,2.30
2018-02-16T04:38:33.593Z,2.25
2018-02-16T04:41:01.971Z,2.20
2018-02-16T04:43:30.280Z,2.21
2018-02-16T04:45:58.635Z,2.21
2018-02-16T04:48:27.044Z,2.08
2018-02-16T04:50:55.352Z,2.03
2018-02-16T04:53:23.837Z,2.07
2018-02-16T04:55:52.181Z,2.02
2018-02-16T04:58:20.509Z,2.02
2018-02-16T05:03:44.907Z,1.92
2018-02-16T05:06:13.798Z,1.96
2018-02-16T05:08:42.555Z,1.92
2018-02-16T05:11:11.238Z,1.80
2018-02-16T05:13:39.752Z,1.79
2018-02-16T05:16:08.405Z,1.88
2018-02-16T05:18:37.212Z,1.68
2018-02-16T05:21:05.713Z,1.74
2018-02-16T05:23:34.147Z,1.82
2018-02-16T05:26:02.710Z,1.85
2018-02-16T05:28:31.427Z,1.87
2018-02-16T05:31:00.278Z,1.88
2018-02-16T05:33:28.947Z,1.90
2018-02-16T05:35:57.439Z,1.86
2018-02-16T05:38:25.932Z,1.74
2018-02-16T05:40:54.775Z,1.77
2018-02-16T05:43:24.013Z,1.60
2018-02-16T05:45:52.579Z,1.77
2018-02-16T05:48:21.934Z,1.74
2018-02-16T05:50:50.594Z,1.72
2018-02-16T05:53:19.141Z,1.62
2018-02-16T05:55:47.987Z,1.68
2018-02-16T05:58:16.511Z,1.75
2018-02-16T06:00:45.051Z,1.66
2018-02-16T06:03:13.562Z,1.63
2018-02-16T06:05:42.135Z,1.57
2018-02-16T06:08:10.591Z,1.62
2018-02-16T06:10:39.041Z,1.67
2018-02-16T06:13:07.650Z,1.53
2018-02-16T06:15:37.063Z,1.65
2018-02-16T06:18:05.631Z,1.65
2018-02-16T06:20:34.303Z,1.67
2018-02-16T06:23:03.281Z,1.60
2018-02-16T06:25:32.094Z,1.72
2018-02-16T06:28:01.439Z,1.69
2018-02-16T06:30:30.626Z,1.65
2018-02-16T06:32:59.430Z,1.63
2018-02-16T06:35:28.354Z,1.63
2018-02-16T06:37:57.826Z,1.59
2018-02-16T06:40:26.328Z,1.68
2018-02-16T06:42:55.006Z,1.64
2018-02-16T06:45:23.766Z,1.82
2018-02-16T06:47:53.247Z,1.78
2018-02-16T06:50:22.799Z,1.71
2018-02-16T06:52:51.391Z,1.71
2018-02-16T06:55:19.964Z,1.80
2018-02-16T06:57:48.665Z,1.74
2018-02-16T07:00:17.312Z,1.83
2018-02-16T07:02:45.755Z,1.86
2018-02-16T07:05:14.302Z,1.85
2018-02-16T07:07:43.123Z,1.91
2018-02-16T07:10:13.507Z,1.97
2018-02-16T07:12:42.298Z,2.06
2018-02-16T07:15:10.959Z,2.15
2018-02-16T07:17:39.868Z,2.25
2018-02-16T07:20:09.354Z,2.27
2018-02-16T07:22:38.190Z,2.34
2018-02-16T07:25:06.717Z,2.40
2018-02-16T07:27:36.287Z,2.36
2018-02-16T07:30:05.341Z,2.56
2018-02-16T07:32:34.169Z,2.87
2018-02-16T07:35:03.763Z,3.33
2018-02-16T07:37:32.425Z,3.14
2018-02-16T07:40:00.851Z,3.14
2018-02-16T07:42:29.756Z,3.05
2018-02-16T07:44:58.246Z,2.96
2018-02-16T07:47:27.939Z,2.92
2018-02-16T07:49:56.899Z,3.14
2018-02-16T07:52:25.735Z,3.20
2018-02-16T07:54:54.383Z,3.24
2018-02-16T07:57:24.980Z,3.29
2018-02-16T07:59:54.828Z,3.30
2018-02-16T08:02:23.936Z,3.22
2018-02-16T08:04:52.840Z,3.20
2018-02-16T08:07:21.968Z,3.19
2018-02-16T08:09:50.710Z,3.32
2018-02-16T08:12:19.370Z,3.36
2018-02-16T08:14:47.990Z,3.48
2018-02-16T08:17:16.748Z,3.64
2018-02-16T08:19:46.369Z,3.68
2018-02-16T08:22:15.763Z,3.77
2018-02-16T08:24:46.247Z,3.89
2018-02-16T08:27:16.158Z,4.08
2018-02-16T08:29:46.720Z,4.21
2018-02-16T08:32:17.530Z,4.43
2018-02-16T08:34:47.038Z,4.39
2018-02-16T08:37:17.661Z,4.61
2018-02-16T08:39:48.895Z,4.70
2018-02-16T08:42:20.320Z,4.73
2018-02-16T08:44:51.094Z,4.77
2018-02-16T08:47:19.956Z,4.81
2018-02-16T08:49:48.954Z,5.01
2018-02-16T08:52:21.151Z,5.03
2018-02-16T08:54:49.802Z,5.11
2018-02-16T08:57:19.103Z,5.22
2018-02-16T08:59:52.117Z,5.17
2018-02-16T09:02:21.043Z,5.20
2018-02-16T09:04:50.711Z,5.41
2018-02-16T09:07:20.530Z,5.42
2018-02-16T09:09:49.150Z,5.60
2018-02-16T09:12:17.838Z,5.72
2018-02-16T09:14:46.732Z,5.81
2018-02-16T09:17:15.733Z,5.77
2018-02-16T09:19:44.727Z,5.77
2018-02-16T09:22:13.961Z,5.92
2018-02-16T09:24:42.835Z,5.90
2018-02-16T09:27:11.704Z,6.01
2018-02-16T09:29:40.200Z,6.09
2018-02-16T09:32:09.950Z,6.10
2018-02-16T09:37:13.615Z,6.27
2018-02-16T09:39:44.933Z,6.37
2018-02-16T09:44:51.266Z,6.47
2018-02-16T09:47:20.162Z,6.46
2018-02-16T09:49:48.847Z,6.54
2018-02-16T09:52:19.022Z,6.74
2018-02-16T09:54:47.597Z,6.62
2018-02-16T09:57:16.326Z,6.62
2018-02-16T09:59:45.988Z,6.92
2018-02-16T10:02:17.103Z,6.76
2018-02-16T10:04:45.668Z,6.67
2018-02-16T10:07:15.096Z,7.13
2018-02-16T10:09:44.362Z,7.03
2018-02-16T10:12:15.647Z,7.33
2018-02-16T10:14:45.075Z,7.18
2018-02-16T10:17:14.847Z,7.90
2018-02-16T10:19:43.616Z,7.60
2018-02-16T10:22:13.220Z,7.21
2018-02-16T10:24:42.134Z,7.22
2018-02-16T10:27:10.888Z,7.63
2018-02-16T10:29:40.079Z,7.83
2018-02-16T10:32:09.509Z,8.34
2018-02-16T10:34:41.479Z,8.47
2018-02-16T10:37:10.940Z,8.72
2018-02-16T10:39:40.724Z,8.61
2018-02-16T10:42:09.602Z,8.88
2018-02-16T10:44:38.227Z,8.41
2018-02-16T10:47:08.481Z,8.70
2018-02-16T10:49:38.600Z,8.70
2018-02-16T10:53:06.721Z,7.80
2018-02-16T10:55:35.681Z,8.39
2018-02-16T10:58:04.508Z,8.52
2018-02-16T11:00:38.153Z,7.93
2018-02-16T11:03:12.064Z,7.95
2018-02-16T11:05:45.475Z,8.52
2018-02-16T11:08:18.379Z,8.33
2018-02-16T11:10:47.343Z,9.17
2018-02-16T11:13:16.215Z,8.11
2018-02-16T11:15:45.132Z,8.99
2018-02-16T11:18:15.624Z,9.11
2018-02-16T11:20:44.604Z,8.38
2018-02-16T11:23:13.315Z,8.58
2018-02-16T11:25:42.422Z,8.83
2018-02-16T11:28:11.037Z,8.16
2018-02-16T11:30:39.921Z,8.23
2018-02-16T11:33:08.755Z,9.09
2018-02-16T11:35:37.234Z,8.87
2018-02-16T11:38:07.478Z,8.32
2018-02-16T11:40:36.263Z,8.12
2018-02-16T11:43:05.462Z,8.10
2018-02-16T11:45:34.520Z,7.76
2018-02-16T11:48:03.896Z,7.92
2018-02-16T11:50:32.965Z,7.94
2018-02-16T11:53:02.202Z,10.38
2018-02-16T11:55:34.876Z,7.75
2018-02-16T11:58:03.571Z,7.69
2018-02-16T12:00:32.536Z,12.23
2018-02-16T12:03:01.715Z,10.32
2018-02-16T12:05:30.301Z,10.46
2018-02-16T12:07:59.499Z,9.31
2018-02-16T12:10:28.494Z,8.62
2018-02-16T12:12:57.407Z,9.23
2018-02-16T12:15:26.504Z,10.79
2018-02-16T12:17:55.600Z,9.84
2018-02-16T12:20:24.679Z,9.88
2018-02-16T12:22:53.373Z,8.78
2018-02-16T12:25:22.489Z,8.29
2018-02-16T12:27:51.360Z,8.07
2018-02-16T12:30:22.919Z,7.86
2018-02-16T12:32:52.014Z,7.71
2018-02-16T12:35:21.731Z,7.94
2018-02-16T12:37:50.714Z,8.25
2018-02-16T12:40:21.663Z,7.68
2018-02-16T12:42:50.377Z,7.29
2018-02-16T12:45:19.051Z,9.24
2018-02-16T12:47:48.892Z,7.92
2018-02-16T12:50:18.619Z,7.63
2018-02-16T12:52:48.127Z,7.31
2018-02-16T12:55:18.299Z,7.78
2018-02-16T12:57:47.163Z,7.48
2018-02-16T13:00:16.819Z,7.59
2018-02-16T13:02:45.798Z,7.16
2018-02-16T13:05:14.312Z,7.10
2018-02-16T13:07:43.511Z,7.97
2018-02-16T13:10:13.315Z,7.20
2018-02-16T13:12:42.246Z,6.87
2018-02-16T13:15:10.988Z,6.58
2018-02-16T13:17:39.636Z,6.54
2018-02-16T13:20:08.979Z,6.49
2018-02-16T13:22:39.703Z,6.46
2018-02-16T13:25:09.771Z,6.67
2018-02-16T13:27:41.558Z,7.44
2018-02-16T13:30:18.932Z,8.04
2018-02-16T13:32:48.689Z,8.77
2018-02-16T13:35:18.307Z,8.62
2018-02-16T13:37:47.023Z,9.25
2018-02-16T13:40:17.003Z,12.05
2018-02-16T13:42:48.139Z,12.79
2018-02-16T13:45:17.299Z,12.77
2018-02-16T13:47:48.232Z,12.05
2018-02-16T13:50:18.574Z,11.62
2018-02-16T13:52:51.964Z,10.08
2018-02-16T13:55:24.650Z,11.36
2018-02-16T13:57:54.004Z,11.16
2018-02-16T14:00:24.067Z,11.87
2018-02-16T14:02:56.994Z,12.76
2018-02-16T14:05:27.050Z,11.08
2018-02-16T14:07:57.737Z,10.97
2018-02-16T14:10:26.741Z,10.01
2018-02-16T14:12:56.389Z,8.75
2018-02-16T14:15:28.029Z,8.78
2018-02-16T14:17:57.325Z,8.76
2018-02-16T14:20:27.584Z,8.64
2018-02-16T14:22:58.852Z,8.19
2018-02-16T14:25:29.904Z,8.17
2018-02-16T14:28:01.036Z,7.92
2018-02-16T14:30:32.844Z,7.83
2018-02-16T14:33:02.623Z,7.82
2018-02-16T14:35:32.889Z,7.60
2018-02-16T14:38:09.352Z,7.37
2018-02-16T14:40:38.777Z,7.66
2018-02-16T14:43:07.514Z,7.72
2018-02-16T14:45:37.104Z,7.70
2018-02-16T14:48:07.061Z,7.55
2018-02-16T14:50:39.439Z,7.71
2018-02-16T14:53:09.318Z,7.72
2018-02-16T14:55:39.369Z,7.71
2018-02-16T14:58:08.753Z,7.72
2018-02-16T15:00:43.150Z,7.75
2018-02-16T15:03:13.786Z,7.62
2018-02-16T15:05:43.728Z,7.31
2018-02-16T15:08:12.847Z,7.27
2018-02-16T15:10:44.268Z,7.16
2018-02-16T15:13:14.086Z,7.07
2018-02-16T15:15:43.281Z,6.92
2018-02-16T15:18:14.537Z,6.88
2018-02-16T15:20:44.757Z,6.83
2018-02-16T15:23:15.673Z,6.73
2018-02-16T15:25:46.785Z,6.59
2018-02-16T15:28:17.540Z,6.54
2018-02-16T15:30:46.899Z,6.36
2018-02-16T15:33:15.548Z,6.37
2018-02-16T15:35:45.015Z,6.27
2018-02-16T15:38:15.477Z,6.14
2018-02-16T15:40:44.312Z,6.04
2018-02-16T15:43:13.800Z,6.06
2018-02-16T15:45:42.862Z,5.91
2018-02-16T15:48:13.444Z,6.01
2018-02-16T15:50:43.910Z,5.99
2018-02-16T15:53:12.767Z,5.85
2018-02-16T15:55:41.278Z,5.71
2018-02-16T15:58:10.730Z,5.67
2018-02-16T16:00:40.683Z,5.51
2018-02-16T16:03:13.686Z,5.41
2018-02-16T16:05:44.329Z,5.36
2018-02-16T16:08:14.741Z,5.34
2018-02-16T16:10:45.139Z,5.30
2018-02-16T16:13:16.314Z,5.20
2018-02-16T16:15:48.368Z,4.91
2018-02-16T16:18:18.455Z,4.92
2018-02-16T16:20:48.033Z,4.80
2018-02-16T16:23:17.507Z,4.97
2018-02-16T16:25:48.771Z,4.84
2018-02-16T16:28:23.113Z,4.91
2018-02-16T16:30:55.337Z,4.78
2018-02-16T16:33:28.127Z,4.74
2018-02-16T16:35:57.983Z,4.81
2018-02-16T16:38:28.161Z,4.65
2018-02-16T16:40:58.694Z,4.50
2018-02-16T16:43:29.290Z,4.53
2018-02-16T16:46:00.505Z,4.40
2018-02-16T16:48:29.963Z,4.27
2018-02-16T16:51:00.351Z,4.34
2018-02-16T16:53:30.402Z,4.29
2018-02-16T16:56:00.484Z,4.22
2018-02-16T16:58:32.417Z,4.25
2018-02-16T17:01:01.798Z,4.13
2018-02-16T17:03:30.415Z,4.15
2018-02-16T17:05:59.743Z,4.12
2018-02-16T17:08:29.267Z,4.13
2018-02-16T17:10:59.608Z,3.97
2018-02-16T17:13:28.540Z,3.80
2018-02-16T17:15:57.194Z,3.94
2018-02-16T17:18:26.818Z,3.95
2018-02-16T17:20:55.967Z,3.86
2018-02-16T17:23:24.904Z,3.92
2018-02-16T17:25:55.356Z,3.79
2018-02-16T17:28:25.333Z,3.79
2018-02-16T17:30:58.315Z,3.91
2018-02-16T17:33:27.548Z,3.89
2018-02-16T17:35:56.265Z,3.85
2018-02-16T17:38:25.667Z,3.75
2018-02-16T17:40:54.375Z,3.84
2018-02-16T17:43:23.439Z,3.86
2018-02-16T17:45:52.765Z,3.72
2018-02-16T17:48:21.534Z,3.44
2018-02-16T17:50:50.585Z,3.35
2018-02-16T17:53:20.319Z,3.13
2018-02-16T17:55:50.245Z,3.06
2018-02-16T17:58:22.457Z,3.23
2018-02-16T18:00:52.600Z,3.18
2018-02-16T18:03:23.324Z,2.79
2018-02-16T18:05:55.757Z,2.96
2018-02-16T18:08:24.424Z,2.86
2018-02-16T18:10:54.298Z,2.95
2018-02-16T18:13:24.819Z,3.01
2018-02-16T18:15:54.116Z,2.55
2018-02-16T18:18:23.404Z,2.69
2018-02-16T18:20:54.455Z,2.77
2018-02-16T18:23:26.895Z,2.71
2018-02-16T18:25:56.800Z,2.87
2018-02-16T18:28:25.248Z,2.85
2018-02-16T18:30:54.229Z,2.96
2018-02-16T18:33:23.702Z,2.76
2018-02-16T18:35:53.447Z,2.78
2018-02-16T18:38:23.313Z,2.72
2018-02-16T18:40:53.847Z,2.70
2018-02-16T18:43:23.880Z,2.70
2018-02-16T18:45:53.471Z,2.66
2018-02-16T18:48:22.531Z,2.44
2018-02-16T18:50:51.928Z,2.31
2018-02-16T18:53:21.828Z,2.40
2018-02-16T18:55:52.763Z,2.45
2018-02-16T18:58:24.844Z,2.30
2018-02-16T19:00:57.266Z,2.20
2018-02-16T19:03:27.238Z,2.35
2018-02-16T19:05:56.326Z,2.30
2018-02-16T19:08:28.239Z,2.37
2018-02-16T19:11:00.342Z,2.32
2018-02-16T19:13:32.532Z,2.01
2018-02-16T19:16:02.223Z,2.17
2018-02-16T19:18:31.889Z,1.95
2018-02-16T19:21:02.448Z,2.18
2018-02-16T19:23:31.898Z,1.98
2018-02-16T19:26:01.987Z,1.83
2018-02-16T19:28:31.286Z,1.83
2018-02-16T19:31:00.224Z,1.86
2018-02-16T19:33:29.549Z,1.77
2018-02-16T19:35:58.903Z,1.63
2018-02-16T19:38:29.374Z,1.75
2018-02-16T19:40:59.723Z,1.71
2018-02-16T19:43:30.700Z,1.90
2018-02-16T19:46:00.334Z,1.59
2018-02-16T19:48:30.364Z,1.68
2018-02-16T19:51:02.120Z,1.69
2018-02-16T19:53:30.947Z,1.66
2018-02-16T19:56:00.845Z,1.59
2018-02-16T19:58:32.971Z,1.54
2018-02-16T20:01:02.801Z,1.52
2018-02-16T20:03:31.742Z,1.49
2018-02-16T20:06:01.908Z,1.45
2018-02-16T20:08:32.371Z,1.45
2018-02-16T20:11:07.029Z,1.30
2018-02-16T20:13:57.814Z,1.36
2018-02-16T20:16:35.293Z,1.31
2018-02-16T20:19:04.503Z,1.20
2018-02-16T20:21:50.516Z,1.31
2018-02-16T20:24:26.029Z,1.39
